createdAt,value
2022-07-31T00:01:33.184Z,5.30
2022-07-31T00:04:03.429Z,5.50
2022-07-31T00:06:33.319Z,6.10
2022-07-31T00:09:03.123Z,4.90
2022-07-31T00:11:33.246Z,5.90
2022-07-31T00:14:03.649Z,5.10
2022-07-31T00:16:33.002Z,4.90
2022-07-31T00:19:02.227Z,4.60
2022-07-31T00:21:31.821Z,5.40
2022-07-31T00:24:01.056Z,5.00
2022-07-31T00:26:30.251Z,4.20
2022-07-31T00:28:59.461Z,3.90
2022-07-31T00:31:28.894Z,4.10
2022-07-31T00:33:59.277Z,4.50
2022-07-31T00:36:30.303Z,4.00
2022-07-31T00:38:59.749Z,3.60
2022-07-31T00:41:39.885Z,4.00
2022-07-31T00:44:12.244Z,3.70
2022-07-31T00:46:42.797Z,3.90
2022-07-31T00:49:12.128Z,3.90
2022-07-31T00:51:42.084Z,4.40
2022-07-31T00:54:16.290Z,4.80
2022-07-31T00:56:52.365Z,4.60
2022-07-31T00:59:24.544Z,5.20
2022-07-31T01:01:54.711Z,4.50
2022-07-31T01:04:23.936Z,4.00
2022-07-31T01:06:53.269Z,3.80
2022-07-31T01:09:22.775Z,4.50
2022-07-31T01:11:58.500Z,4.40
2022-07-31T01:14:33.379Z,4.60
2022-07-31T01:17:04.503Z,4.50
2022-07-31T01:19:42.859Z,4.00
2022-07-31T01:22:39.169Z,5.00
2022-07-31T01:25:16.789Z,4.70
2022-07-31T01:28:01.880Z,4.20
2022-07-31T01:30:36.192Z,3.90
2022-07-31T01:33:10.108Z,4.90
2022-07-31T01:35:44.077Z,4.20
2022-07-31T01:38:16.328Z,4.10
2022-07-31T01:40:48.752Z,3.60
2022-07-31T01:43:23.096Z,3.70
2022-07-31T01:45:54.594Z,3.80
2022-07-31T01:48:24.773Z,3.60
2022-07-31T01:50:58.786Z,3.20
2022-07-31T01:53:28.735Z,3.60
2022-07-31T01:56:03.452Z,3.50
2022-07-31T01:58:38.789Z,3.90
2022-07-31T02:01:11.270Z,3.90
2022-07-31T02:03:43.828Z,3.70
2022-07-31T02:06:16.919Z,3.70
2022-07-31T02:08:47.758Z,4.10
2022-07-31T02:11:19.759Z,4.50
2022-07-31T02:13:50.234Z,4.40
2022-07-31T02:16:21.135Z,4.20
2022-07-31T02:18:52.492Z,3.90
2022-07-31T02:21:21.803Z,3.40
2022-07-31T02:23:52.101Z,4.00
2022-07-31T02:26:23.215Z,3.80
2022-07-31T02:28:52.925Z,4.50
2022-07-31T02:31:24.107Z,4.30
2022-07-31T02:33:53.983Z,3.90
2022-07-31T02:36:25.043Z,3.90
2022-07-31T02:38:57.084Z,3.50
2022-07-31T02:41:28.021Z,4.20
2022-07-31T02:43:58.011Z,4.20
2022-07-31T02:46:28.625Z,4.00
2022-07-31T02:48:58.627Z,4.10
2022-07-31T02:51:29.082Z,3.60
2022-07-31T02:54:12.804Z,3.50
2022-07-31T02:56:42.948Z,3.60
2022-07-31T02:59:12.119Z,3.60
2022-07-31T03:01:41.657Z,3.40
2022-07-31T03:04:11.262Z,3.40
2022-07-31T03:06:40.842Z,4.40
2022-07-31T03:09:10.092Z,3.60
2022-07-31T03:11:39.410Z,3.80
2022-07-31T03:14:11.049Z,4.10
2022-07-31T03:16:43.387Z,3.20
2022-07-31T03:19:14.044Z,3.80
2022-07-31T03:21:44.297Z,3.50
2022-07-31T03:24:13.437Z,3.80
2022-07-31T03:26:43.115Z,3.80
2022-07-31T03:29:42.855Z,3.50
2022-07-31T03:32:26.022Z,4.50
2022-07-31T03:35:21.026Z,4.40
2022-07-31T03:38:40.500Z,4.40
2022-07-31T03:41:30.494Z,4.50
2022-07-31T03:44:21.296Z,5.40
2022-07-31T03:47:25.520Z,4.30
2022-07-31T03:50:22.845Z,4.00
2022-07-31T03:53:15.512Z,4.20
2022-07-31T03:56:11.911Z,3.60
2022-07-31T03:59:07.196Z,3.30
2022-07-31T04:04:53.353Z,3.00
2022-07-31T04:07:49.204Z,2.80
2022-07-31T04:10:48.318Z,2.90
2022-07-31T04:13:41.950Z,3.50
2022-07-31T04:16:36.335Z,3.10
2022-07-31T04:19:28.107Z,3.40
2022-07-31T04:21:57.937Z,3.00
2022-07-31T04:24:27.245Z,3.10
2022-07-31T04:26:58.210Z,3.20
2022-07-31T04:29:28.496Z,3.10
2022-07-31T04:31:58.852Z,3.00
2022-07-31T04:34:28.154Z,3.30
2022-07-31T04:36:57.512Z,2.70
2022-07-31T04:39:26.657Z,2.60
2022-07-31T04:41:57.286Z,3.00
2022-07-31T04:44:26.440Z,2.70
2022-07-31T04:47:00.250Z,2.90
2022-07-31T04:49:32.417Z,2.60
2022-07-31T04:52:02.595Z,2.70
2022-07-31T04:54:34.036Z,2.80
2022-07-31T04:57:04.048Z,2.80
2022-07-31T04:59:59.119Z,2.90
2022-07-31T05:02:22.952Z,2.10
2022-07-31T05:04:52.682Z,2.80
2022-07-31T05:07:28.740Z,2.30
2022-07-31T05:09:59.221Z,2.40
2022-07-31T05:12:28.522Z,2.80
2022-07-31T05:14:57.681Z,2.70
2022-07-31T05:17:26.851Z,2.90
2022-07-31T05:19:56.060Z,2.80
2022-07-31T05:22:25.316Z,3.00
2022-07-31T05:24:54.478Z,3.00
2022-07-31T05:27:23.811Z,3.00
2022-07-31T05:29:54.296Z,3.10
2022-07-31T05:32:24.435Z,3.00
2022-07-31T05:34:53.936Z,3.90
2022-07-31T05:37:24.003Z,3.10
2022-07-31T05:39:53.198Z,3.20
2022-07-31T05:42:22.464Z,3.40
2022-07-31T05:44:51.752Z,3.30
2022-07-31T05:47:21.315Z,3.30
2022-07-31T05:49:50.674Z,3.50
2022-07-31T05:52:19.891Z,3.70
2022-07-31T05:54:49.541Z,3.60
2022-07-31T05:57:33.629Z,3.40
2022-07-31T06:00:04.389Z,3.40
2022-07-31T06:02:34.647Z,3.00
2022-07-31T06:05:04.252Z,3.50
2022-07-31T06:07:33.532Z,3.30
2022-07-31T06:10:11.240Z,2.90
2022-07-31T06:12:40.446Z,3.10
2022-07-31T06:15:10.787Z,2.80
2022-07-31T06:17:44.502Z,3.00
2022-07-31T06:20:15.416Z,2.50
2022-07-31T06:22:45.219Z,2.60
2022-07-31T06:25:15.018Z,2.60
2022-07-31T06:27:44.253Z,2.10
2022-07-31T06:30:21.146Z,2.10
2022-07-31T06:32:50.509Z,2.10
2022-07-31T06:35:20.091Z,1.90
2022-07-31T06:37:49.542Z,1.90
2022-07-31T06:40:19.114Z,2.00
2022-07-31T06:42:48.532Z,2.00
2022-07-31T06:45:30.072Z,1.70
2022-07-31T06:48:07.367Z,1.80
2022-07-31T06:50:37.440Z,1.50
2022-07-31T06:53:06.781Z,1.50
2022-07-31T06:55:36.114Z,1.30
2022-07-31T06:58:06.141Z,1.50
2022-07-31T07:00:35.497Z,1.70
2022-07-31T07:03:04.716Z,1.20
2022-07-31T07:05:33.904Z,1.30
2022-07-31T07:08:05.040Z,1.20
2022-07-31T07:10:35.399Z,1.40
2022-07-31T07:13:08.621Z,1.20
2022-07-31T07:15:38.336Z,1.50
2022-07-31T07:18:07.865Z,1.40
2022-07-31T07:20:38.290Z,1.30
2022-07-31T07:23:07.519Z,1.30
2022-07-31T07:25:37.091Z,1.10
2022-07-31T07:28:07.957Z,1.20
2022-07-31T07:30:39.557Z,1.20
2022-07-31T07:33:09.038Z,1.30
2022-07-31T07:35:39.246Z,1.20
2022-07-31T07:38:09.236Z,1.50
2022-07-31T07:40:40.046Z,1.40
2022-07-31T07:43:09.231Z,1.50
2022-07-31T07:45:39.747Z,1.40
2022-07-31T07:48:08.975Z,1.30
2022-07-31T07:50:38.253Z,1.20
2022-07-31T07:53:08.180Z,1.10
2022-07-31T07:55:40.271Z,1.40
2022-07-31T07:58:11.996Z,1.10
2022-07-31T08:00:42.453Z,1.10
2022-07-31T08:03:49.537Z,1.20
2022-07-31T08:06:02.202Z,1.20
2022-07-31T08:08:31.540Z,1.20
2022-07-31T08:11:03.251Z,1.20
2022-07-31T08:13:32.926Z,1.20
2022-07-31T08:16:02.276Z,1.30
2022-07-31T08:18:32.603Z,1.20
2022-07-31T08:21:03.299Z,1.10
2022-07-31T08:23:32.625Z,1.30
2022-07-31T08:26:06.677Z,1.50
2022-07-31T08:28:36.302Z,1.10
2022-07-31T08:31:05.600Z,1.50
2022-07-31T08:33:36.857Z,1.20
2022-07-31T08:36:08.830Z,1.20
2022-07-31T08:38:38.947Z,1.30
2022-07-31T08:41:08.266Z,1.30
2022-07-31T08:44:00.618Z,1.30
2022-07-31T08:46:27.274Z,1.40
2022-07-31T08:48:58.915Z,1.40
2022-07-31T08:51:28.676Z,1.20
2022-07-31T08:54:00.025Z,1.30
2022-07-31T08:56:29.904Z,1.40
2022-07-31T08:58:59.407Z,1.10
2022-07-31T09:01:30.098Z,1.30
2022-07-31T09:04:00.766Z,1.30
2022-07-31T09:06:31.071Z,1.30
2022-07-31T09:09:00.644Z,1.20
2022-07-31T09:11:30.565Z,1.10
2022-07-31T09:14:02.670Z,1.40
2022-07-31T09:16:44.745Z,1.20
2022-07-31T09:19:51.960Z,1.00
2022-07-31T09:22:08.471Z,1.10
2022-07-31T09:24:40.303Z,1.10
2022-07-31T09:27:10.494Z,1.10
2022-07-31T09:29:41.043Z,0.80
2022-07-31T09:32:12.057Z,1.00
2022-07-31T09:34:41.808Z,0.90
2022-07-31T09:37:12.700Z,1.00
2022-07-31T09:39:52.082Z,0.80
2022-07-31T09:42:22.727Z,0.90
2022-07-31T09:44:53.300Z,1.10
2022-07-31T09:47:24.184Z,1.00
2022-07-31T09:49:58.849Z,1.00
2022-07-31T09:52:29.589Z,0.80
2022-07-31T09:55:16.072Z,1.00
2022-07-31T09:57:54.767Z,1.00
2022-07-31T10:00:25.453Z,1.00
2022-07-31T10:02:56.960Z,0.80
2022-07-31T10:05:28.028Z,0.70
2022-07-31T10:07:59.861Z,0.80
2022-07-31T10:10:30.529Z,0.90
2022-07-31T10:13:03.860Z,0.70
2022-07-31T10:15:36.056Z,0.70
2022-07-31T10:18:08.987Z,0.50
2022-07-31T10:20:42.442Z,0.90
2022-07-31T10:23:17.023Z,0.60
2022-07-31T10:25:53.891Z,0.70
2022-07-31T10:28:24.690Z,0.70
2022-07-31T10:30:55.246Z,0.70
2022-07-31T10:33:43.752Z,0.80
2022-07-31T10:36:20.521Z,0.70
2022-07-31T10:38:59.289Z,0.60
2022-07-31T10:41:46.238Z,0.60
2022-07-31T10:44:22.677Z,0.60
2022-07-31T10:46:52.469Z,0.70
2022-07-31T10:49:38.709Z,0.60
2022-07-31T10:52:08.210Z,0.70
2022-07-31T10:54:46.049Z,0.60
2022-07-31T10:57:24.220Z,0.80
2022-07-31T10:59:53.820Z,0.50
2022-07-31T11:02:34.745Z,0.50
2022-07-31T11:05:11.586Z,0.50
2022-07-31T11:07:41.149Z,0.60
2022-07-31T11:10:23.938Z,0.70
2022-07-31T11:13:02.212Z,0.70
2022-07-31T11:15:35.743Z,1.60
2022-07-31T11:18:24.159Z,0.60
2022-07-31T11:21:13.625Z,0.60
2022-07-31T11:24:02.401Z,0.50
2022-07-31T11:26:42.109Z,0.60
2022-07-31T11:29:58.579Z,0.90
2022-07-31T11:32:12.454Z,0.60
2022-07-31T11:34:47.933Z,0.70
2022-07-31T11:37:20.273Z,0.70
2022-07-31T11:39:52.436Z,0.70
2022-07-31T11:42:27.742Z,0.80
2022-07-31T11:46:21.421Z,1.00
2022-07-31T11:48:10.956Z,1.00
2022-07-31T11:50:44.270Z,0.70
2022-07-31T11:53:13.954Z,0.90
2022-07-31T11:55:48.462Z,0.70
2022-07-31T12:00:51.583Z,0.70
2022-07-31T12:03:22.723Z,0.70
2022-07-31T12:05:53.272Z,0.60
2022-07-31T12:08:23.861Z,0.50
2022-07-31T12:10:55.061Z,0.80
2022-07-31T12:13:26.389Z,0.50
2022-07-31T12:16:02.913Z,0.60
2022-07-31T12:18:45.907Z,0.60
2022-07-31T12:21:16.495Z,0.40
2022-07-31T12:23:47.060Z,0.70
2022-07-31T12:26:26.786Z,0.60
2022-07-31T12:29:00.401Z,0.60
2022-07-31T12:31:31.298Z,0.60
2022-07-31T12:34:00.936Z,0.60
2022-07-31T12:36:30.317Z,0.50
2022-07-31T12:39:04.687Z,0.60
2022-07-31T12:41:43.620Z,0.80
2022-07-31T12:44:14.864Z,0.70
2022-07-31T12:46:51.660Z,0.60
2022-07-31T12:49:21.070Z,0.60
2022-07-31T12:51:50.657Z,0.60
2022-07-31T12:54:19.948Z,0.50
2022-07-31T12:56:49.550Z,0.60
2022-07-31T12:59:18.741Z,0.60
2022-07-31T13:01:48.131Z,0.60
2022-07-31T13:04:18.362Z,0.50
2022-07-31T13:06:50.733Z,0.50
2022-07-31T13:09:20.658Z,0.50
2022-07-31T13:11:54.534Z,0.50
2022-07-31T13:14:26.738Z,0.60
2022-07-31T13:16:57.379Z,0.50
2022-07-31T13:19:27.080Z,0.50
2022-07-31T13:21:56.823Z,0.60
2022-07-31T13:24:26.760Z,0.40
2022-07-31T13:26:58.590Z,0.50
2022-07-31T13:29:27.892Z,0.30
2022-07-31T13:31:57.299Z,0.50
2022-07-31T13:34:26.537Z,0.50
2022-07-31T13:36:58.665Z,0.50
2022-07-31T13:39:28.372Z,0.40
2022-07-31T13:41:57.875Z,0.40
2022-07-31T13:44:27.817Z,0.40
2022-07-31T13:46:57.394Z,0.40
2022-07-31T13:49:31.682Z,0.60
2022-07-31T13:52:01.844Z,0.50
2022-07-31T13:54:31.533Z,0.30
2022-07-31T13:57:00.942Z,0.70
2022-07-31T13:59:30.212Z,0.60
2022-07-31T14:02:05.172Z,0.70
2022-07-31T14:04:38.391Z,0.90
2022-07-31T14:07:09.425Z,0.70
2022-07-31T14:09:38.925Z,1.20
2022-07-31T14:12:16.602Z,0.80
2022-07-31T14:14:46.677Z,0.90
2022-07-31T14:17:17.619Z,0.60
2022-07-31T14:19:46.943Z,0.60
2022-07-31T14:22:17.247Z,0.50
2022-07-31T14:24:51.263Z,0.60
2022-07-31T14:27:21.432Z,0.50
2022-07-31T14:29:51.926Z,0.50
2022-07-31T14:32:22.853Z,0.40
2022-07-31T14:34:52.794Z,0.70
2022-07-31T14:37:22.154Z,0.60
2022-07-31T14:39:51.898Z,0.50
2022-07-31T14:42:22.515Z,0.40
2022-07-31T14:44:58.600Z,0.60
2022-07-31T14:47:34.591Z,0.50
2022-07-31T14:50:09.895Z,0.40
2022-07-31T14:52:41.169Z,0.40
2022-07-31T14:55:11.839Z,0.50
2022-07-31T14:57:45.466Z,0.50
2022-07-31T15:00:16.769Z,0.40
2022-07-31T15:02:49.116Z,0.40
2022-07-31T15:06:41.099Z,0.60
2022-07-31T15:08:09.770Z,0.50
2022-07-31T15:10:39.050Z,0.60
2022-07-31T15:13:09.903Z,0.60
2022-07-31T15:15:39.538Z,0.50
2022-07-31T15:18:09.276Z,0.50
2022-07-31T15:20:41.388Z,0.40
2022-07-31T15:23:10.652Z,0.60
2022-07-31T15:25:40.083Z,0.50
2022-07-31T15:28:09.713Z,0.50
2022-07-31T15:30:39.052Z,0.40
2022-07-31T15:33:08.579Z,0.50
2022-07-31T15:35:38.337Z,0.50
2022-07-31T15:38:09.751Z,0.50
2022-07-31T15:40:40.278Z,0.50
2022-07-31T15:43:10.980Z,0.40
2022-07-31T15:45:44.301Z,0.50
2022-07-31T15:48:20.805Z,0.50
2022-07-31T15:50:52.669Z,0.50
2022-07-31T15:53:37.378Z,0.50
2022-07-31T15:56:12.407Z,0.50
2022-07-31T15:58:45.319Z,0.40
2022-07-31T16:01:15.217Z,0.60
2022-07-31T16:03:55.740Z,0.60
2022-07-31T16:06:34.586Z,0.50
2022-07-31T16:09:15.101Z,0.80
2022-07-31T16:12:03.908Z,0.50
2022-07-31T16:14:35.438Z,0.40
2022-07-31T16:17:05.376Z,0.40
2022-07-31T16:19:41.121Z,0.30
2022-07-31T16:22:14.442Z,0.40
2022-07-31T16:24:48.645Z,0.50
2022-07-31T16:27:40.675Z,0.30
2022-07-31T16:30:18.012Z,0.50
2022-07-31T16:32:48.045Z,0.60
2022-07-31T16:35:21.155Z,0.50
2022-07-31T16:37:54.118Z,0.30
2022-07-31T16:40:29.939Z,0.30
2022-07-31T16:43:46.774Z,0.50
2022-07-31T16:45:52.929Z,0.50
2022-07-31T16:48:30.239Z,0.40
2022-07-31T16:51:02.929Z,0.30
2022-07-31T16:54:13.101Z,0.40
2022-07-31T16:56:26.749Z,0.40
2022-07-31T16:59:04.452Z,0.40
2022-07-31T17:01:53.826Z,0.40
2022-07-31T17:04:26.767Z,0.50
2022-07-31T17:06:58.218Z,0.40
2022-07-31T17:09:31.390Z,0.50
2022-07-31T17:12:04.078Z,0.40
2022-07-31T17:14:34.068Z,0.40
2022-07-31T17:17:08.151Z,0.40
2022-07-31T17:19:45.240Z,0.50
2022-07-31T17:22:18.954Z,0.60
2022-07-31T17:24:51.207Z,0.50
2022-07-31T17:27:25.887Z,0.50
2022-07-31T17:32:27.828Z,0.60
2022-07-31T17:35:09.869Z,0.60
2022-07-31T17:37:56.747Z,0.70
2022-07-31T17:40:46.021Z,0.60
2022-07-31T17:43:27.571Z,0.90
2022-07-31T17:46:08.529Z,0.70
2022-07-31T17:48:48.548Z,0.90
2022-07-31T17:51:18.338Z,1.00
2022-07-31T17:53:55.428Z,0.90
2022-07-31T17:56:33.172Z,1.00
2022-07-31T17:59:09.064Z,1.20
2022-07-31T18:01:38.514Z,1.10
2022-07-31T18:04:07.849Z,1.20
2022-07-31T18:06:39.089Z,1.30
2022-07-31T18:09:08.400Z,1.50
2022-07-31T18:11:37.809Z,1.60
2022-07-31T18:14:07.193Z,1.90
2022-07-31T18:16:36.734Z,2.00
2022-07-31T18:19:06.080Z,2.50
2022-07-31T18:21:35.858Z,2.30
2022-07-31T18:24:06.971Z,2.40
2022-07-31T18:26:37.127Z,2.60
2022-07-31T18:29:08.534Z,2.70
2022-07-31T18:31:38.533Z,2.70
2022-07-31T18:34:08.755Z,2.90
2022-07-31T18:36:39.064Z,2.90
2022-07-31T18:39:08.870Z,3.30
2022-07-31T18:41:46.825Z,3.10
2022-07-31T18:44:18.650Z,3.10
2022-07-31T18:46:48.387Z,3.40
2022-07-31T18:51:01.115Z,3.20
2022-07-31T18:52:10.734Z,3.00
2022-07-31T18:54:40.474Z,3.40
2022-07-31T18:57:13.135Z,3.30
2022-07-31T18:59:43.618Z,3.30
2022-07-31T19:02:12.971Z,3.20
2022-07-31T19:04:45.343Z,3.20
2022-07-31T19:07:23.643Z,3.30
2022-07-31T19:09:58.740Z,3.30
2022-07-31T19:12:29.822Z,3.30
2022-07-31T19:15:05.502Z,2.90
2022-07-31T19:18:10.401Z,2.90
2022-07-31T19:21:23.183Z,3.30
2022-07-31T19:24:17.517Z,2.90
2022-07-31T19:26:57.872Z,2.60
2022-07-31T19:29:41.054Z,2.20
2022-07-31T19:32:15.293Z,2.60
2022-07-31T19:34:47.981Z,2.20
2022-07-31T19:37:20.371Z,2.00
2022-07-31T19:39:50.149Z,1.70
2022-07-31T19:42:20.973Z,1.90
2022-07-31T19:44:53.194Z,2.00
2022-07-31T19:47:22.947Z,1.70
2022-07-31T19:49:55.658Z,1.90
2022-07-31T19:52:25.408Z,1.70
2022-07-31T19:54:55.311Z,1.70
2022-07-31T19:57:27.542Z,1.70
2022-07-31T19:59:58.798Z,1.80
2022-07-31T20:02:33.297Z,1.70
2022-07-31T20:05:05.128Z,1.60
2022-07-31T20:07:35.197Z,1.80
2022-07-31T20:10:05.170Z,1.90
2022-07-31T20:12:34.945Z,2.00
2022-07-31T20:15:04.705Z,2.40
2022-07-31T20:17:34.281Z,2.00
2022-07-31T20:20:15.605Z,2.30
2022-07-31T20:22:45.479Z,2.10
2022-07-31T20:25:19.617Z,2.00
2022-07-31T20:27:50.489Z,2.00
2022-07-31T20:30:21.713Z,2.30
2022-07-31T20:32:52.661Z,2.00
2022-07-31T20:35:32.833Z,2.00
2022-07-31T20:38:16.010Z,2.30
2022-07-31T20:40:53.131Z,2.10
2022-07-31T20:43:25.426Z,2.30
2022-07-31T20:45:56.883Z,2.10
2022-07-31T20:48:31.070Z,2.20
2022-07-31T20:51:02.342Z,2.30
2022-07-31T20:53:32.243Z,2.20
2022-07-31T20:56:01.647Z,2.30
2022-07-31T20:58:30.848Z,2.10
2022-07-31T21:01:00.238Z,2.20
2022-07-31T21:03:29.573Z,1.90
2022-07-31T21:05:58.798Z,2.10
2022-07-31T21:08:28.589Z,2.40
2022-07-31T21:11:01.111Z,2.10
2022-07-31T21:13:30.644Z,2.50
2022-07-31T21:16:00.260Z,2.70
2022-07-31T21:18:34.690Z,2.40
2022-07-31T21:21:04.783Z,2.50
2022-07-31T21:23:34.110Z,2.30
2022-07-31T21:26:07.271Z,2.50
2022-07-31T21:28:39.566Z,2.50
2022-07-31T21:31:09.821Z,2.60
2022-07-31T21:33:40.215Z,2.70
2022-07-31T21:36:13.079Z,2.30
2022-07-31T21:38:44.801Z,2.40
2022-07-31T21:41:19.410Z,2.30
2022-07-31T21:46:29.992Z,2.30
2022-07-31T21:49:00.098Z,2.40
2022-07-31T21:51:30.450Z,2.30
2022-07-31T21:53:59.809Z,2.60
2022-07-31T21:56:29.390Z,2.40
2022-07-31T21:58:58.606Z,2.50
2022-07-31T22:01:27.954Z,2.00
2022-07-31T22:03:57.299Z,2.50
2022-07-31T22:06:44.448Z,2.20
2022-07-31T22:09:14.002Z,2.80
2022-07-31T22:12:01.373Z,2.40
2022-07-31T22:14:31.314Z,2.50
2022-07-31T22:17:00.659Z,2.40
2022-07-31T22:19:31.129Z,2.20
2022-07-31T22:22:02.764Z,2.30
2022-07-31T22:24:33.266Z,2.30
2022-07-31T22:27:23.278Z,2.40
2022-07-31T22:29:53.058Z,2.00
2022-07-31T22:32:22.774Z,1.90
2022-07-31T22:34:52.391Z,2.10
2022-07-31T22:37:22.969Z,2.40
2022-07-31T22:39:52.381Z,2.10
2022-07-31T22:42:22.369Z,2.20
2022-07-31T22:44:51.981Z,2.40
2022-07-31T22:47:21.978Z,2.00
2022-07-31T22:49:51.764Z,2.30
2022-07-31T22:52:21.155Z,2.60
2022-07-31T22:54:50.424Z,3.00
2022-07-31T22:57:19.864Z,3.20
2022-07-31T22:59:49.173Z,3.20
2022-07-31T23:02:19.060Z,3.20
2022-07-31T23:04:48.340Z,3.30
2022-07-31T23:07:17.700Z,3.30
2022-07-31T23:09:46.957Z,3.50
2022-07-31T23:12:16.205Z,3.60
2022-07-31T23:14:45.529Z,3.60
2022-07-31T23:17:22.894Z,3.30
2022-07-31T23:19:54.335Z,3.50
2022-07-31T23:22:33.552Z,3.60
2022-07-31T23:25:03.449Z,3.40
2022-07-31T23:27:33.002Z,3.50
2022-07-31T23:30:05.949Z,3.70
2022-07-31T23:32:35.310Z,3.60
2022-07-31T23:35:04.953Z,3.30
2022-07-31T23:37:34.239Z,3.40
2022-07-31T23:40:04.443Z,3.30
2022-07-31T23:42:39.700Z,2.90
2022-07-31T23:45:12.181Z,3.20
2022-07-31T23:47:45.823Z,3.00
2022-07-31T23:50:16.997Z,3.40
2022-07-31T23:52:46.313Z,3.20
2022-07-31T23:55:15.550Z,3.00
2022-07-31T23:57:44.836Z,2.80
